createdAt,value
2018-02-05T00:00:23.697Z,98.10
2018-02-05T00:02:51.577Z,97.80
2018-02-05T00:05:19.705Z,97.90
2018-02-05T00:07:47.795Z,98.10
2018-02-05T00:10:16.087Z,98.10
2018-02-05T00:12:43.951Z,98.10
2018-02-05T00:15:12.943Z,98.10
2018-02-05T00:17:40.972Z,98.10
2018-02-05T00:20:09.090Z,98.00
2018-02-05T00:22:37.066Z,98.00
2018-02-05T00:25:05.027Z,97.90
2018-02-05T00:27:33.257Z,98.00
2018-02-05T00:30:01.200Z,97.70
2018-02-05T00:32:29.966Z,97.90
2018-02-05T00:34:58.048Z,97.70
2018-02-05T00:37:26.269Z,97.80
2018-02-05T00:39:54.540Z,97.70
2018-02-05T00:42:22.553Z,97.80
2018-02-05T00:44:50.418Z,97.80
2018-02-05T00:47:18.299Z,97.70
2018-02-05T00:49:47.244Z,97.70
2018-02-05T00:52:15.862Z,97.40
2018-02-05T00:54:44.142Z,97.50
2018-02-05T00:57:12.218Z,97.30
2018-02-05T00:59:40.283Z,97.30
2018-02-05T01:02:08.354Z,97.40
2018-02-05T01:04:36.396Z,97.20
2018-02-05T01:07:04.295Z,97.10
2018-02-05T01:09:32.159Z,97.10
2018-02-05T01:12:00.215Z,97.10
2018-02-05T01:14:28.180Z,97.00
2018-02-05T01:16:56.022Z,96.80
2018-02-05T01:19:24.004Z,96.70
2018-02-05T01:21:52.013Z,96.70
2018-02-05T01:24:19.883Z,96.70
2018-02-05T01:26:48.104Z,96.70
2018-02-05T01:29:16.264Z,96.60
2018-02-05T01:31:44.988Z,96.30
2018-02-05T01:34:12.957Z,96.30
2018-02-05T01:36:40.796Z,96.20
2018-02-05T01:39:08.714Z,96.30
2018-02-05T01:41:36.594Z,96.40
2018-02-05T01:44:04.857Z,96.60
2018-02-05T01:46:32.827Z,96.60
2018-02-05T01:49:00.853Z,96.60
2018-02-05T01:51:29.033Z,96.50
2018-02-05T01:53:57.304Z,96.60
2018-02-05T01:56:25.372Z,96.80
2018-02-05T01:58:53.390Z,96.70
2018-02-05T02:01:21.421Z,96.70
2018-02-05T02:03:49.399Z,96.60
2018-02-05T02:06:17.734Z,96.50
2018-02-05T02:08:45.572Z,96.40
2018-02-05T02:11:13.718Z,96.50
2018-02-05T02:13:41.716Z,96.50
2018-02-05T02:16:09.564Z,96.50
2018-02-05T02:18:37.427Z,96.60
2018-02-05T02:21:05.473Z,96.70
2018-02-05T02:23:33.387Z,96.90
2018-02-05T02:26:01.182Z,96.90
2018-02-05T02:28:29.122Z,96.90
2018-02-05T02:30:57.092Z,96.90
2018-02-05T02:33:25.064Z,96.90
2018-02-05T02:35:53.236Z,96.90
2018-02-05T02:38:21.214Z,96.80
2018-02-05T02:40:50.604Z,96.70
2018-02-05T02:43:18.676Z,96.70
2018-02-05T02:45:46.554Z,96.70
2018-02-05T02:48:14.512Z,96.70
2018-02-05T02:50:42.390Z,96.70
2018-02-05T02:53:10.183Z,96.70
2018-02-05T02:55:38.710Z,96.60
2018-02-05T02:58:06.605Z,96.60
2018-02-05T03:00:34.409Z,96.60
2018-02-05T03:03:02.335Z,96.60
2018-02-05T03:05:30.194Z,96.20
2018-02-05T03:07:58.001Z,95.90
2018-02-05T03:10:26.653Z,95.50
2018-02-05T03:12:54.519Z,95.50
2018-02-05T03:15:22.481Z,95.50
2018-02-05T03:17:50.360Z,95.50
2018-02-05T03:20:18.170Z,95.60
2018-02-05T03:22:46.810Z,95.70
2018-02-05T03:25:14.605Z,95.70
2018-02-05T03:27:43.260Z,95.60
2018-02-05T03:30:11.128Z,95.60
2018-02-05T03:32:38.981Z,95.60
2018-02-05T03:35:06.903Z,95.60
2018-02-05T03:37:35.535Z,95.60
2018-02-05T03:40:03.402Z,95.60
2018-02-05T03:42:31.269Z,95.50
2018-02-05T03:44:59.144Z,95.40
2018-02-05T03:47:26.867Z,95.20
2018-02-05T03:49:54.662Z,95.00
2018-02-05T03:52:22.636Z,95.00
2018-02-05T03:54:50.446Z,95.10
2018-02-05T03:57:19.018Z,95.00
2018-02-05T03:59:46.785Z,95.00
2018-02-05T04:02:15.379Z,94.80
2018-02-05T04:04:44.025Z,94.60
2018-02-05T04:07:16.593Z,94.60
2018-02-05T04:09:44.463Z,94.60
2018-02-05T04:12:12.432Z,94.70
2018-02-05T04:14:40.297Z,94.70
2018-02-05T04:17:08.268Z,94.90
2018-02-05T04:19:36.394Z,94.90
2018-02-05T04:22:04.309Z,95.00
2018-02-05T04:24:32.058Z,95.00
2018-02-05T04:27:00.043Z,95.10
2018-02-05T04:29:28.011Z,95.10
2018-02-05T04:31:55.834Z,95.00
2018-02-05T04:34:23.743Z,94.90
2018-02-05T04:36:51.620Z,94.70
2018-02-05T04:39:19.480Z,94.60
2018-02-05T04:41:47.242Z,94.60
2018-02-05T04:44:14.996Z,94.40
2018-02-05T04:46:42.884Z,94.30
2018-02-05T04:49:10.774Z,94.40
2018-02-05T04:51:38.732Z,94.60
2018-02-05T04:54:06.579Z,94.50
2018-02-05T04:56:34.555Z,94.60
2018-02-05T04:59:02.355Z,94.70
2018-02-05T05:01:30.931Z,95.30
2018-02-05T05:03:59.594Z,95.20
2018-02-05T05:06:28.164Z,95.20
2018-02-05T05:08:56.034Z,95.40
2018-02-05T05:11:23.897Z,95.20
2018-02-05T05:13:51.764Z,95.40
2018-02-05T05:16:19.500Z,95.10
2018-02-05T05:18:47.560Z,95.00
2018-02-05T05:21:15.467Z,95.10
2018-02-05T05:23:43.283Z,94.70
2018-02-05T05:26:12.022Z,94.40
2018-02-05T05:28:39.998Z,94.30
2018-02-05T05:31:07.958Z,94.20
2018-02-05T05:33:35.823Z,94.10
2018-02-05T05:36:03.692Z,94.20
2018-02-05T05:38:31.552Z,94.30
2018-02-05T05:40:59.358Z,94.40
2018-02-05T05:43:27.291Z,94.60
2018-02-05T05:45:55.038Z,95.00
2018-02-05T05:48:22.788Z,94.50
2018-02-05T05:50:50.684Z,94.30
2018-02-05T05:53:18.442Z,94.30
2018-02-05T05:55:46.262Z,94.20
2018-02-05T05:58:15.047Z,93.80
2018-02-05T06:00:43.695Z,93.70
2018-02-05T06:03:11.829Z,93.70
2018-02-05T06:05:39.662Z,93.60
2018-02-05T06:08:07.704Z,93.50
2018-02-05T06:10:35.675Z,93.40
2018-02-05T06:13:03.566Z,93.20
2018-02-05T06:15:31.506Z,93.50
2018-02-05T06:17:59.478Z,93.50
2018-02-05T06:20:27.343Z,93.60
2018-02-05T06:22:55.210Z,93.80
2018-02-05T06:25:23.243Z,93.90
2018-02-05T06:27:51.377Z,94.10
2018-02-05T06:30:19.332Z,94.10
2018-02-05T06:32:47.190Z,94.00
2018-02-05T06:35:15.018Z,93.90
2018-02-05T06:37:42.923Z,93.80
2018-02-05T06:40:10.792Z,94.00
2018-02-05T06:42:38.760Z,93.50
2018-02-05T06:45:06.634Z,93.40
2018-02-05T06:47:34.538Z,93.60
2018-02-05T06:50:03.078Z,93.90
2018-02-05T06:55:47.859Z,93.70
2018-02-05T06:58:15.826Z,93.50
2018-02-05T07:00:44.012Z,93.60
2018-02-05T07:03:11.987Z,93.50
2018-02-05T07:05:40.046Z,93.40
2018-02-05T07:08:07.920Z,93.70
2018-02-05T07:10:35.779Z,93.80
2018-02-05T07:13:03.606Z,93.90
2018-02-05T07:15:31.512Z,93.70
2018-02-05T07:17:59.310Z,93.70
2018-02-05T07:20:27.247Z,93.60
2018-02-05T07:22:55.424Z,93.70
2018-02-05T07:25:24.517Z,93.70
2018-02-05T07:27:52.483Z,93.60
2018-02-05T07:30:20.557Z,93.20
2018-02-05T07:32:48.462Z,93.00
2018-02-05T07:35:17.177Z,93.40
2018-02-05T07:37:44.999Z,93.00
2018-02-05T07:40:13.058Z,93.10
2018-02-05T07:42:40.915Z,93.00
2018-02-05T07:45:08.783Z,93.10
2018-02-05T07:47:36.502Z,93.30
2018-02-05T07:50:04.311Z,92.90
2018-02-05T07:52:32.334Z,92.60
2018-02-05T07:55:00.147Z,92.40
2018-02-05T07:57:28.033Z,92.20
2018-02-05T07:59:55.901Z,92.20
2018-02-05T08:02:23.762Z,91.70
2018-02-05T08:04:51.615Z,91.60
2018-02-05T08:07:19.687Z,91.70
2018-02-05T08:09:47.655Z,91.80
2018-02-05T08:12:15.449Z,91.70
2018-02-05T08:14:43.470Z,91.60
2018-02-05T08:17:11.566Z,91.80
2018-02-05T08:19:39.543Z,91.30
2018-02-05T08:22:07.502Z,90.90
2018-02-05T08:24:35.266Z,90.60
2018-02-05T08:27:03.243Z,90.40
2018-02-05T08:29:31.102Z,90.00
2018-02-05T08:31:59.083Z,90.70
2018-02-05T08:34:27.039Z,90.70
2018-02-05T08:36:54.908Z,90.50
2018-02-05T08:39:22.942Z,90.50
2018-02-05T08:41:50.930Z,90.50
2018-02-05T08:44:18.658Z,90.30
2018-02-05T08:46:47.406Z,90.40
2018-02-05T08:49:15.471Z,90.30
2018-02-05T08:51:43.340Z,90.40
2018-02-05T08:54:11.223Z,90.30
2018-02-05T08:56:39.186Z,90.40
2018-02-05T08:59:07.221Z,90.40
2018-02-05T09:01:34.941Z,90.30
2018-02-05T09:04:02.878Z,89.80
2018-02-05T09:06:30.949Z,90.40
2018-02-05T09:08:58.837Z,90.10
2018-02-05T09:11:26.684Z,90.00
2018-02-05T09:13:54.594Z,89.20
2018-02-05T09:16:23.234Z,86.40
2018-02-05T09:18:51.103Z,86.40
2018-02-05T09:21:18.926Z,84.60
2018-02-05T09:23:46.843Z,83.40
2018-02-05T09:26:14.769Z,83.30
2018-02-05T09:28:42.564Z,83.10
2018-02-05T09:31:10.586Z,83.20
2018-02-05T09:33:39.430Z,82.30
2018-02-05T09:36:07.296Z,82.30
2018-02-05T09:38:35.281Z,81.30
2018-02-05T09:41:03.267Z,81.60
2018-02-05T09:43:31.112Z,80.60
2018-02-05T09:45:59.234Z,78.80
2018-02-05T09:48:27.048Z,78.10
2018-02-05T09:50:54.894Z,78.50
2018-02-05T09:53:22.877Z,78.70
2018-02-05T09:55:50.856Z,77.70
2018-02-05T09:58:18.786Z,77.20
2018-02-05T10:00:46.579Z,77.30
2018-02-05T10:03:14.653Z,76.60
2018-02-05T10:05:42.553Z,75.60
2018-02-05T10:08:11.203Z,76.20
2018-02-05T10:10:39.060Z,76.10
2018-02-05T10:13:07.042Z,75.40
2018-02-05T10:15:35.030Z,72.50
2018-02-05T10:18:02.876Z,71.80
2018-02-05T10:20:30.744Z,71.70
2018-02-05T10:22:58.919Z,72.40
2018-02-05T10:25:27.193Z,73.40
2018-02-05T10:27:55.078Z,74.10
2018-02-05T10:30:23.283Z,73.70
2018-02-05T10:32:51.924Z,71.90
2018-02-05T10:35:20.054Z,71.80
2018-02-05T10:37:47.859Z,70.90
2018-02-05T10:40:15.727Z,67.60
2018-02-05T10:42:43.661Z,66.70
2018-02-05T10:45:11.561Z,65.40
2018-02-05T10:47:39.634Z,64.10
2018-02-05T10:50:07.519Z,63.00
2018-02-05T10:52:35.370Z,62.80
2018-02-05T10:55:03.344Z,62.10
2018-02-05T10:57:31.209Z,61.70
2018-02-05T10:59:59.181Z,63.60
2018-02-05T11:02:26.975Z,60.70
2018-02-05T11:04:55.624Z,61.00
2018-02-05T11:07:23.593Z,61.50
2018-02-05T11:09:51.568Z,59.60
2018-02-05T11:12:19.437Z,61.10
2018-02-05T11:14:47.605Z,64.40
2018-02-05T11:17:15.555Z,58.70
2018-02-05T11:19:43.613Z,56.70
2018-02-05T11:22:11.448Z,60.10
2018-02-05T11:24:40.299Z,58.20
2018-02-05T11:27:08.371Z,58.20
2018-02-05T11:29:36.257Z,57.20
2018-02-05T11:32:04.309Z,55.60
2018-02-05T11:34:32.379Z,54.30
2018-02-05T11:37:00.298Z,51.60
2018-02-05T11:39:29.129Z,52.10
2018-02-05T11:41:57.108Z,52.00
2018-02-05T11:44:24.979Z,50.30
2018-02-05T11:46:53.163Z,48.30
2018-02-05T11:49:21.119Z,48.80
2018-02-05T11:51:49.100Z,48.40
2018-02-05T11:54:17.088Z,48.30
2018-02-05T11:56:44.924Z,46.80
2018-02-05T11:59:12.890Z,48.40
2018-02-05T12:01:40.760Z,47.70
2018-02-05T12:04:08.628Z,46.30
2018-02-05T12:06:36.657Z,45.80
2018-02-05T12:09:04.564Z,45.90
2018-02-05T12:11:32.636Z,46.30
2018-02-05T12:14:00.811Z,45.60
2018-02-05T12:16:28.678Z,44.90
2018-02-05T12:18:56.766Z,44.10
2018-02-05T12:21:26.218Z,45.60
2018-02-05T12:23:54.146Z,45.60
2018-02-05T12:26:22.194Z,46.20
2018-02-05T12:28:50.061Z,50.00
2018-02-05T12:31:18.030Z,45.80
2018-02-05T12:33:45.999Z,44.80
2018-02-05T12:36:13.760Z,45.40
2018-02-05T12:38:41.731Z,45.20
2018-02-05T12:41:09.530Z,45.20
2018-02-05T12:43:37.379Z,45.20
2018-02-05T12:46:05.247Z,45.60
2018-02-05T12:48:33.201Z,45.20
2018-02-05T12:51:01.066Z,45.40
2018-02-05T12:53:28.934Z,47.80
2018-02-05T12:55:56.905Z,48.50
2018-02-05T12:58:24.974Z,46.50
2018-02-05T13:04:07.047Z,45.30
2018-02-05T13:06:35.900Z,47.30
2018-02-05T13:09:03.751Z,47.30
2018-02-05T13:11:31.823Z,47.10
2018-02-05T13:13:59.906Z,47.20
2018-02-05T13:16:27.864Z,46.70
2018-02-05T13:18:55.834Z,45.30
2018-02-05T13:21:24.478Z,45.10
2018-02-05T13:23:52.330Z,45.10
2018-02-05T13:26:20.365Z,45.00
2018-02-05T13:28:48.222Z,45.10
2018-02-05T13:31:16.089Z,46.10
2018-02-05T13:33:44.059Z,45.70
2018-02-05T13:36:11.938Z,46.00
2018-02-05T13:38:39.874Z,46.20
2018-02-05T13:41:07.694Z,46.40
2018-02-05T13:43:35.526Z,46.00
2018-02-05T13:46:03.393Z,46.30
2018-02-05T13:48:31.262Z,45.90
2018-02-05T13:50:59.167Z,46.70
2018-02-05T13:53:27.816Z,47.10
2018-02-05T13:55:55.602Z,47.10
2018-02-05T13:58:23.614Z,46.80
2018-02-05T14:00:51.860Z,45.80
2018-02-05T14:03:20.407Z,45.90
2018-02-05T14:05:48.373Z,45.90
2018-02-05T14:08:16.243Z,45.90
2018-02-05T14:10:44.136Z,46.70
2018-02-05T14:13:12.102Z,47.20
2018-02-05T14:15:39.946Z,45.80
2018-02-05T14:18:07.824Z,45.40
2018-02-05T14:20:35.748Z,45.00
2018-02-05T14:23:04.161Z,42.40
2018-02-05T14:25:32.035Z,39.90
2018-02-05T14:27:59.996Z,39.00
2018-02-05T14:30:28.171Z,37.80
2018-02-05T14:32:55.936Z,38.30
2018-02-05T14:35:23.697Z,39.60
2018-02-05T14:37:51.771Z,40.50
2018-02-05T14:40:19.740Z,41.80
2018-02-05T14:42:47.671Z,42.80
2018-02-05T14:45:15.402Z,44.60
2018-02-05T14:47:43.365Z,46.00
2018-02-05T14:50:11.326Z,47.00
2018-02-05T14:52:39.179Z,47.60
2018-02-05T14:55:07.068Z,48.50
2018-02-05T14:57:34.913Z,48.80
2018-02-05T15:00:02.784Z,49.70
2018-02-05T15:02:30.749Z,51.00
2018-02-05T15:04:58.623Z,51.70
2018-02-05T15:07:26.480Z,52.30
2018-02-05T15:09:54.420Z,52.90
2018-02-05T15:12:22.214Z,53.70
2018-02-05T15:14:49.979Z,53.90
2018-02-05T15:17:17.878Z,54.70
2018-02-05T15:19:46.534Z,55.30
2018-02-05T15:22:14.410Z,55.20
2018-02-05T15:24:42.272Z,55.80
2018-02-05T15:27:10.430Z,56.10
2018-02-05T15:29:38.225Z,56.70
2018-02-05T15:32:06.082Z,57.40
2018-02-05T15:34:34.047Z,58.10
2018-02-05T15:37:02.027Z,59.40
2018-02-05T15:39:29.879Z,60.90
2018-02-05T15:41:57.861Z,62.30
2018-02-05T15:44:25.725Z,63.20
2018-02-05T15:46:53.623Z,64.60
2018-02-05T15:49:22.471Z,68.10
2018-02-05T15:51:50.337Z,68.10
2018-02-05T15:54:18.378Z,68.90
2018-02-05T15:56:46.284Z,69.50
2018-02-05T15:59:14.246Z,70.30
2018-02-05T16:01:42.113Z,71.40
2018-02-05T16:04:09.986Z,72.50
2018-02-05T16:06:37.744Z,73.40
2018-02-05T16:09:05.609Z,74.80
2018-02-05T16:11:33.662Z,75.80
2018-02-05T16:14:01.548Z,76.20
2018-02-05T16:16:29.415Z,77.10
2018-02-05T16:18:57.561Z,78.40
2018-02-05T16:21:25.516Z,79.10
2018-02-05T16:23:53.529Z,79.70
2018-02-05T16:26:21.469Z,80.60
2018-02-05T16:28:49.375Z,81.30
2018-02-05T16:31:17.445Z,82.50
2018-02-05T16:33:45.265Z,83.00
2018-02-05T16:36:13.116Z,83.50
2018-02-05T16:38:41.868Z,82.60
2018-02-05T16:41:09.833Z,82.50
2018-02-05T16:43:37.807Z,82.60
2018-02-05T16:46:05.661Z,82.60
2018-02-05T16:48:33.527Z,82.90
2018-02-05T16:51:01.401Z,82.90
2018-02-05T16:53:29.306Z,83.00
2018-02-05T16:55:58.027Z,83.60
2018-02-05T16:58:25.938Z,83.60
2018-02-05T17:00:55.172Z,83.80
2018-02-05T17:03:23.301Z,84.00
2018-02-05T17:05:51.175Z,84.70
2018-02-05T17:08:19.164Z,84.90
2018-02-05T17:10:47.873Z,86.10
2018-02-05T17:13:15.888Z,86.10
2018-02-05T17:15:44.059Z,86.40
2018-02-05T17:18:12.132Z,87.00
2018-02-05T17:20:40.000Z,87.30
2018-02-05T17:23:08.042Z,88.00
2018-02-05T17:25:35.894Z,88.30
2018-02-05T17:28:03.804Z,88.30
2018-02-05T17:30:31.885Z,88.00
2018-02-05T17:32:59.807Z,88.50
2018-02-05T17:35:27.856Z,87.40
2018-02-05T17:37:56.770Z,88.10
2018-02-05T17:40:24.775Z,88.00
2018-02-05T17:42:52.670Z,88.30
2018-02-05T17:45:20.716Z,87.80
2018-02-05T17:47:49.154Z,87.90
2018-02-05T17:50:17.164Z,87.80
2018-02-05T17:52:45.035Z,87.70
2018-02-05T17:55:13.146Z,88.10
2018-02-05T17:57:41.710Z,89.10
2018-02-05T18:00:09.869Z,89.10
2018-02-05T18:02:37.873Z,88.90
2018-02-05T18:05:06.517Z,88.20
2018-02-05T18:07:34.385Z,88.20
2018-02-05T18:10:02.356Z,88.40
2018-02-05T18:12:30.225Z,88.50
2018-02-05T18:14:58.191Z,88.70
2018-02-05T18:17:26.058Z,88.90
2018-02-05T18:19:53.955Z,88.60
2018-02-05T18:22:22.827Z,89.00
2018-02-05T18:24:50.955Z,88.90
2018-02-05T18:27:18.879Z,88.80
2018-02-05T18:29:46.763Z,87.60
2018-02-05T18:32:15.431Z,87.30
2018-02-05T18:34:43.283Z,87.20
2018-02-05T18:37:11.423Z,87.80
2018-02-05T18:39:39.430Z,87.80
2018-02-05T18:42:07.285Z,88.30
2018-02-05T18:44:35.278Z,88.30
2018-02-05T18:47:03.974Z,88.80
2018-02-05T18:49:32.538Z,89.30
2018-02-05T18:52:00.810Z,89.30
2018-02-05T18:54:29.793Z,89.10
2018-02-05T18:56:57.782Z,89.10
2018-02-05T18:59:25.642Z,90.00
2018-02-05T19:02:05.376Z,90.10
2018-02-05T19:04:33.259Z,90.20
2018-02-05T19:07:01.222Z,90.30
2018-02-05T19:09:29.947Z,90.50
2018-02-05T19:11:58.720Z,90.70
2018-02-05T19:14:26.879Z,90.70
2018-02-05T19:16:54.978Z,90.70
2018-02-05T19:19:23.726Z,90.80
2018-02-05T19:21:51.561Z,90.70
2018-02-05T19:24:19.454Z,90.90
2018-02-05T19:26:47.489Z,91.10
2018-02-05T19:29:15.838Z,91.40
2018-02-05T19:31:44.488Z,91.60
2018-02-05T19:34:12.313Z,91.70
2018-02-05T19:36:40.228Z,91.60
2018-02-05T19:39:08.192Z,91.40
2018-02-05T19:41:35.956Z,91.40
2018-02-05T19:44:04.105Z,91.80
2018-02-05T19:46:31.998Z,91.40
2018-02-05T19:48:59.965Z,91.50
2018-02-05T19:51:28.057Z,91.70
2018-02-05T19:53:56.012Z,91.80
2018-02-05T19:56:23.876Z,91.80
2018-02-05T19:58:51.945Z,91.80
2018-02-05T20:01:19.922Z,91.60
2018-02-05T20:03:47.885Z,91.60
2018-02-05T20:06:15.867Z,91.70
2018-02-05T20:08:43.721Z,92.10
2018-02-05T20:11:11.539Z,92.30
2018-02-05T20:13:40.172Z,92.50
2018-02-05T20:16:08.046Z,92.50
2018-02-05T20:18:35.969Z,92.50
2018-02-05T20:21:03.923Z,92.50
2018-02-05T20:23:32.667Z,92.70
2018-02-05T20:26:00.747Z,92.70
2018-02-05T20:28:28.642Z,92.90
2018-02-05T20:30:57.604Z,93.30
2018-02-05T20:33:25.774Z,93.30
2018-02-05T20:35:53.841Z,93.40
2018-02-05T20:38:21.918Z,93.50
2018-02-05T20:40:49.785Z,93.60
2018-02-05T20:43:17.753Z,93.80
2018-02-05T20:45:45.722Z,93.90
2018-02-05T20:48:13.693Z,93.90
2018-02-05T20:50:41.656Z,93.80
2018-02-05T20:53:09.524Z,93.80
2018-02-05T20:55:37.570Z,93.80
2018-02-05T20:58:05.411Z,93.80
2018-02-05T21:00:34.270Z,93.70
2018-02-05T21:03:03.068Z,93.70
2018-02-05T21:05:31.732Z,93.50
2018-02-05T21:07:59.702Z,93.50
2018-02-05T21:10:27.670Z,93.00
2018-02-05T21:12:55.573Z,93.10
2018-02-05T21:15:24.342Z,93.20
2018-02-05T21:17:52.211Z,93.10
2018-02-05T21:20:20.094Z,93.40
2018-02-05T21:22:48.824Z,93.90
2018-02-05T21:25:16.627Z,93.90
2018-02-05T21:27:44.541Z,94.00
2018-02-05T21:30:12.724Z,93.90
2018-02-05T21:32:40.691Z,94.10
2018-02-05T21:35:08.631Z,94.30
2018-02-05T21:37:37.619Z,94.80
2018-02-05T21:40:06.176Z,95.00
2018-02-05T21:42:34.033Z,95.00
2018-02-05T21:45:01.896Z,95.20
2018-02-05T21:47:29.871Z,95.60
2018-02-05T21:49:58.090Z,95.90
2018-02-05T21:52:26.726Z,95.70
2018-02-05T21:54:54.591Z,95.80
2018-02-05T21:57:22.632Z,95.60
2018-02-05T21:59:50.742Z,95.50
2018-02-05T22:02:18.686Z,95.40
2018-02-05T22:04:46.828Z,95.60
2018-02-05T22:07:15.589Z,95.40
2018-02-05T22:09:43.533Z,95.40
2018-02-05T22:12:11.401Z,95.00
2018-02-05T22:14:39.678Z,94.70
2018-02-05T22:17:07.543Z,94.70
2018-02-05T22:19:35.522Z,94.90
2018-02-05T22:22:03.380Z,94.90
2018-02-05T22:24:31.452Z,95.00
2018-02-05T22:26:59.458Z,95.10
2018-02-05T22:29:28.324Z,95.10
2018-02-05T22:31:56.281Z,95.10
2018-02-05T22:34:24.265Z,95.10
2018-02-05T22:36:52.422Z,95.00
2018-02-05T22:39:20.395Z,94.90
2018-02-05T22:41:48.466Z,94.70
2018-02-05T22:44:16.231Z,94.90
2018-02-05T22:46:44.301Z,95.10
2018-02-05T22:49:12.284Z,95.30
2018-02-05T22:51:40.342Z,95.50
2018-02-05T22:54:08.209Z,95.60
2018-02-05T22:56:36.088Z,95.60
2018-02-05T22:59:04.071Z,95.30
2018-02-05T23:01:31.913Z,94.80
2018-02-05T23:03:59.806Z,94.10
2018-02-05T23:06:27.753Z,94.10
2018-02-05T23:08:55.615Z,94.20
2018-02-05T23:11:23.688Z,94.40
2018-02-05T23:13:51.612Z,94.60
2018-02-05T23:16:19.420Z,94.70
2018-02-05T23:18:47.389Z,94.80
2018-02-05T23:21:15.434Z,94.90
2018-02-05T23:23:43.436Z,95.00
2018-02-05T23:26:11.502Z,95.10
2018-02-05T23:28:39.370Z,95.20
2018-02-05T23:31:07.346Z,95.30
2018-02-05T23:33:35.205Z,95.60
2018-02-05T23:36:03.211Z,95.80
2018-02-05T23:38:31.859Z,95.20
2018-02-05T23:41:00.136Z,95.00
2018-02-05T23:43:28.106Z,94.90
2018-02-05T23:45:55.978Z,94.80
2018-02-05T23:48:23.885Z,94.70
2018-02-05T23:50:52.536Z,94.60
2018-02-05T23:53:20.496Z,94.60
2018-02-05T23:55:48.427Z,94.70
2018-02-05T23:58:16.433Z,94.80
